sensor_id;sensor_type;location;lat;lon;timestamp;P1;durP1;ratioP1;P2;durP2;ratioP2
44462;SDS011;30170;52.190;8.702;2023-01-29T00:02:21;37.63;;;14.77;;
44462;SDS011;30170;52.190;8.702;2023-01-29T00:04:49;34.80;;;15.77;;
44462;SDS011;30170;52.190;8.702;2023-01-29T00:07:17;32.53;;;15.65;;
44462;SDS011;30170;52.190;8.702;2023-01-29T00:09:46;31.15;;;15.45;;
44462;SDS011;30170;52.190;8.702;2023-01-29T00:12:14;33.15;;;16.10;;
44462;SDS011;30170;52.190;8.702;2023-01-29T00:14:41;33.92;;;15.73;;
44462;SDS011;30170;52.190;8.702;2023-01-29T00:17:08;30.88;;;16.20;;
44462;SDS011;30170;52.190;8.702;2023-01-29T00:19:37;25.38;;;13.90;;
44462;SDS011;30170;52.190;8.702;2023-01-29T00:22:05;39.85;;;15.80;;
44462;SDS011;30170;52.190;8.702;2023-01-29T00:24:32;28.85;;;15.40;;
44462;SDS011;30170;52.190;8.702;2023-01-29T00:26:59;30.77;;;14.23;;
44462;SDS011;30170;52.190;8.702;2023-01-29T00:29:27;35.95;;;16.65;;
44462;SDS011;30170;52.190;8.702;2023-01-29T00:31:56;34.47;;;15.70;;
44462;SDS011;30170;52.190;8.702;2023-01-29T00:34:23;27.17;;;14.93;;
44462;SDS011;30170;52.190;8.702;2023-01-29T00:36:50;35.25;;;16.15;;
44462;SDS011;30170;52.190;8.702;2023-01-29T00:39:18;27.42;;;13.68;;
44462;SDS011;30170;52.190;8.702;2023-01-29T00:42:01;30.17;;;14.48;;
44462;SDS011;30170;52.190;8.702;2023-01-29T00:44:47;34.72;;;14.35;;
44462;SDS011;30170;52.190;8.702;2023-01-29T00:47:23;27.98;;;14.52;;
44462;SDS011;30170;52.190;8.702;2023-01-29T00:49:59;32.55;;;14.35;;
44462;SDS011;30170;52.190;8.702;2023-01-29T00:52:30;30.40;;;15.60;;
44462;SDS011;30170;52.190;8.702;2023-01-29T00:54:58;37.83;;;14.70;;
44462;SDS011;30170;52.190;8.702;2023-01-29T00:57:26;29.48;;;13.35;;
44462;SDS011;30170;52.190;8.702;2023-01-29T00:59:53;27.20;;;13.57;;
44462;SDS011;30170;52.190;8.702;2023-01-29T01:02:21;27.08;;;14.35;;
44462;SDS011;30170;52.190;8.702;2023-01-29T01:05:07;28.08;;;15.30;;
44462;SDS011;30170;52.190;8.702;2023-01-29T01:07:47;31.63;;;14.38;;
44462;SDS011;30170;52.190;8.702;2023-01-29T01:10:16;28.95;;;14.30;;
44462;SDS011;30170;52.190;8.702;2023-01-29T01:12:47;31.83;;;14.93;;
44462;SDS011;30170;52.190;8.702;2023-01-29T01:15:30;30.90;;;14.75;;
44462;SDS011;30170;52.190;8.702;2023-01-29T01:17:58;27.73;;;14.30;;
44462;SDS011;30170;52.190;8.702;2023-01-29T01:20:27;25.60;;;14.38;;
44462;SDS011;30170;52.190;8.702;2023-01-29T01:22:55;33.85;;;15.50;;
44462;SDS011;30170;52.190;8.702;2023-01-29T01:25:23;32.17;;;14.80;;
44462;SDS011;30170;52.190;8.702;2023-01-29T01:27:53;28.35;;;14.95;;
44462;SDS011;30170;52.190;8.702;2023-01-29T01:30:23;30.42;;;13.23;;
44462;SDS011;30170;52.190;8.702;2023-01-29T01:32:51;31.35;;;14.45;;
44462;SDS011;30170;52.190;8.702;2023-01-29T01:35:18;30.25;;;13.90;;
44462;SDS011;30170;52.190;8.702;2023-01-29T01:37:45;31.02;;;14.27;;
44462;SDS011;30170;52.190;8.702;2023-01-29T01:40:14;28.23;;;14.45;;
44462;SDS011;30170;52.190;8.702;2023-01-29T01:42:46;27.60;;;13.27;;
44462;SDS011;30170;52.190;8.702;2023-01-29T01:45:22;28.45;;;13.02;;
44462;SDS011;30170;52.190;8.702;2023-01-29T01:48:01;31.65;;;14.48;;
44462;SDS011;30170;52.190;8.702;2023-01-29T01:50:33;29.52;;;13.68;;
44462;SDS011;30170;52.190;8.702;2023-01-29T01:53:11;29.77;;;14.70;;
44462;SDS011;30170;52.190;8.702;2023-01-29T01:55:43;31.92;;;14.98;;
44462;SDS011;30170;52.190;8.702;2023-01-29T01:58:12;30.85;;;13.02;;
44462;SDS011;30170;52.190;8.702;2023-01-29T02:00:41;28.65;;;14.30;;
44462;SDS011;30170;52.190;8.702;2023-01-29T02:03:08;30.23;;;13.95;;
44462;SDS011;30170;52.190;8.702;2023-01-29T02:05:55;31.08;;;15.60;;
44462;SDS011;30170;52.190;8.702;2023-01-29T02:08:53;30.60;;;14.93;;
44462;SDS011;30170;52.190;8.702;2023-01-29T02:11:40;32.95;;;14.45;;
44462;SDS011;30170;52.190;8.702;2023-01-29T02:14:08;28.17;;;13.05;;
44462;SDS011;30170;52.190;8.702;2023-01-29T02:16:35;27.60;;;13.30;;
44462;SDS011;30170;52.190;8.702;2023-01-29T02:19:04;29.02;;;14.27;;
44462;SDS011;30170;52.190;8.702;2023-01-29T02:25:07;31.38;;;14.10;;
44462;SDS011;30170;52.190;8.702;2023-01-29T02:27:07;31.33;;;14.95;;
44462;SDS011;30170;52.190;8.702;2023-01-29T02:29:46;35.60;;;15.27;;
44462;SDS011;30170;52.190;8.702;2023-01-29T02:32:24;32.83;;;16.48;;
44462;SDS011;30170;52.190;8.702;2023-01-29T02:34:57;30.77;;;15.55;;
44462;SDS011;30170;52.190;8.702;2023-01-29T02:37:49;35.08;;;16.35;;
44462;SDS011;30170;52.190;8.702;2023-01-29T02:42:52;38.95;;;17.38;;
44462;SDS011;30170;52.190;8.702;2023-01-29T02:48:20;34.45;;;16.50;;
44462;SDS011;30170;52.190;8.702;2023-01-29T02:50:59;35.60;;;16.48;;
44462;SDS011;30170;52.190;8.702;2023-01-29T02:53:36;39.00;;;17.20;;
44462;SDS011;30170;52.190;8.702;2023-01-29T02:56:15;38.40;;;18.33;;
44462;SDS011;30170;52.190;8.702;2023-01-29T02:58:48;38.03;;;16.50;;
44462;SDS011;30170;52.190;8.702;2023-01-29T03:03:52;39.53;;;18.38;;
44462;SDS011;30170;52.190;8.702;2023-01-29T03:08:56;41.33;;;18.17;;
44462;SDS011;30170;52.190;8.702;2023-01-29T03:11:25;39.58;;;18.08;;
44462;SDS011;30170;52.190;8.702;2023-01-29T03:14:55;37.45;;;16.73;;
44462;SDS011;30170;52.190;8.702;2023-01-29T03:16:51;43.28;;;18.52;;
44462;SDS011;30170;52.190;8.702;2023-01-29T03:19:22;42.55;;;17.35;;
44462;SDS011;30170;52.190;8.702;2023-01-29T03:21:55;39.83;;;18.35;;
44462;SDS011;30170;52.190;8.702;2023-01-29T03:27:25;43.95;;;20.08;;
44462;SDS011;30170;52.190;8.702;2023-01-29T03:30:13;40.35;;;17.98;;
44462;SDS011;30170;52.190;8.702;2023-01-29T03:33:02;38.45;;;19.75;;
44462;SDS011;30170;52.190;8.702;2023-01-29T03:35:33;37.83;;;19.42;;
44462;SDS011;30170;52.190;8.702;2023-01-29T03:38:02;47.20;;;19.45;;
44462;SDS011;30170;52.190;8.702;2023-01-29T03:40:52;37.83;;;18.65;;
44462;SDS011;30170;52.190;8.702;2023-01-29T03:43:28;44.65;;;19.70;;
44462;SDS011;30170;52.190;8.702;2023-01-29T03:46:09;41.08;;;19.52;;
44462;SDS011;30170;52.190;8.702;2023-01-29T03:48:42;42.00;;;19.95;;
44462;SDS011;30170;52.190;8.702;2023-01-29T03:54:34;38.17;;;22.42;;
44462;SDS011;30170;52.190;8.702;2023-01-29T03:59:35;50.25;;;23.00;;
44462;SDS011;30170;52.190;8.702;2023-01-29T04:02:39;45.30;;;26.55;;
44462;SDS011;30170;52.190;8.702;2023-01-29T04:05:02;45.95;;;21.85;;
44462;SDS011;30170;52.190;8.702;2023-01-29T04:07:30;49.67;;;28.10;;
44462;SDS011;30170;52.190;8.702;2023-01-29T04:12:29;47.38;;;29.75;;
44462;SDS011;30170;52.190;8.702;2023-01-29T04:14:59;42.92;;;24.58;;
44462;SDS011;30170;52.190;8.702;2023-01-29T04:17:29;45.97;;;21.80;;
44462;SDS011;30170;52.190;8.702;2023-01-29T04:19:58;44.45;;;23.83;;
44462;SDS011;30170;52.190;8.702;2023-01-29T04:22:27;45.00;;;21.05;;
44462;SDS011;30170;52.190;8.702;2023-01-29T04:25:00;46.15;;;20.67;;
44462;SDS011;30170;52.190;8.702;2023-01-29T04:30:29;45.58;;;20.70;;
44462;SDS011;30170;52.190;8.702;2023-01-29T04:38:21;49.40;;;22.13;;
44462;SDS011;30170;52.190;8.702;2023-01-29T04:49:05;46.85;;;29.70;;
44462;SDS011;30170;52.190;8.702;2023-01-29T04:56:47;183.75;;;172.50;;
44462;SDS011;30170;52.190;8.702;2023-01-29T04:59:18;242.27;;;228.65;;
44462;SDS011;30170;52.190;8.702;2023-01-29T05:01:47;206.65;;;194.02;;
44462;SDS011;30170;52.190;8.702;2023-01-29T05:04:16;166.77;;;155.60;;
44462;SDS011;30170;52.190;8.702;2023-01-29T05:06:44;168.68;;;157.73;;
44462;SDS011;30170;52.190;8.702;2023-01-29T05:09:13;170.90;;;159.05;;
44462;SDS011;30170;52.190;8.702;2023-01-29T05:11:40;172.52;;;161.60;;
44462;SDS011;30170;52.190;8.702;2023-01-29T05:14:08;239.82;;;226.13;;
44462;SDS011;30170;52.190;8.702;2023-01-29T05:16:39;168.55;;;157.80;;
44462;SDS011;30170;52.190;8.702;2023-01-29T05:19:09;239.30;;;226.00;;
44462;SDS011;30170;52.190;8.702;2023-01-29T05:21:42;58.10;;;31.20;;
44462;SDS011;30170;52.190;8.702;2023-01-29T05:24:14;45.22;;;21.77;;
44462;SDS011;30170;52.190;8.702;2023-01-29T05:26:42;52.17;;;21.95;;
44462;SDS011;30170;52.190;8.702;2023-01-29T05:29:29;40.58;;;20.20;;
44462;SDS011;30170;52.190;8.702;2023-01-29T05:31:56;43.72;;;19.83;;
44462;SDS011;30170;52.190;8.702;2023-01-29T05:34:23;52.92;;;22.33;;
44462;SDS011;30170;52.190;8.702;2023-01-29T05:36:50;48.47;;;22.75;;
44462;SDS011;30170;52.190;8.702;2023-01-29T05:39:19;48.28;;;22.08;;
44462;SDS011;30170;52.190;8.702;2023-01-29T05:41:46;45.60;;;19.90;;
44462;SDS011;30170;52.190;8.702;2023-01-29T05:44:13;39.60;;;19.30;;
44462;SDS011;30170;52.190;8.702;2023-01-29T05:46:41;46.88;;;20.27;;
44462;SDS011;30170;52.190;8.702;2023-01-29T05:49:11;49.95;;;22.25;;
44462;SDS011;30170;52.190;8.702;2023-01-29T05:51:38;44.35;;;22.50;;
44462;SDS011;30170;52.190;8.702;2023-01-29T05:54:05;42.80;;;21.02;;
44462;SDS011;30170;52.190;8.702;2023-01-29T05:56:33;49.85;;;22.65;;
44462;SDS011;30170;52.190;8.702;2023-01-29T05:59:00;49.95;;;21.98;;
44462;SDS011;30170;52.190;8.702;2023-01-29T06:01:29;55.05;;;23.05;;
44462;SDS011;30170;52.190;8.702;2023-01-29T06:03:56;45.40;;;23.90;;
44462;SDS011;30170;52.190;8.702;2023-01-29T06:06:24;49.42;;;20.98;;
44462;SDS011;30170;52.190;8.702;2023-01-29T06:08:51;56.65;;;22.00;;
44462;SDS011;30170;52.190;8.702;2023-01-29T06:11:18;49.83;;;21.95;;
44462;SDS011;30170;52.190;8.702;2023-01-29T06:13:45;45.58;;;22.45;;
44462;SDS011;30170;52.190;8.702;2023-01-29T06:16:13;54.20;;;21.55;;
44462;SDS011;30170;52.190;8.702;2023-01-29T06:18:44;47.22;;;22.50;;
44462;SDS011;30170;52.190;8.702;2023-01-29T06:21:12;50.15;;;22.48;;
44462;SDS011;30170;52.190;8.702;2023-01-29T06:23:39;49.33;;;21.85;;
44462;SDS011;30170;52.190;8.702;2023-01-29T06:26:10;51.95;;;22.77;;
44462;SDS011;30170;52.190;8.702;2023-01-29T06:28:41;54.70;;;24.17;;
44462;SDS011;30170;52.190;8.702;2023-01-29T06:31:10;48.17;;;22.67;;
44462;SDS011;30170;52.190;8.702;2023-01-29T06:33:57;61.72;;;26.33;;
44462;SDS011;30170;52.190;8.702;2023-01-29T06:36:30;52.50;;;22.17;;
44462;SDS011;30170;52.190;8.702;2023-01-29T06:38:57;52.92;;;24.58;;
44462;SDS011;30170;52.190;8.702;2023-01-29T06:41:27;50.35;;;22.95;;
44462;SDS011;30170;52.190;8.702;2023-01-29T06:43:54;51.47;;;20.83;;
44462;SDS011;30170;52.190;8.702;2023-01-29T06:46:21;56.25;;;23.40;;
44462;SDS011;30170;52.190;8.702;2023-01-29T06:48:48;50.10;;;23.80;;
44462;SDS011;30170;52.190;8.702;2023-01-29T06:51:16;51.72;;;22.80;;
44462;SDS011;30170;52.190;8.702;2023-01-29T06:53:43;51.78;;;22.85;;
44462;SDS011;30170;52.190;8.702;2023-01-29T06:56:11;55.88;;;23.05;;
44462;SDS011;30170;52.190;8.702;2023-01-29T06:58:39;57.88;;;26.05;;
44462;SDS011;30170;52.190;8.702;2023-01-29T07:01:09;60.00;;;26.33;;
44462;SDS011;30170;52.190;8.702;2023-01-29T07:03:50;64.13;;;28.20;;
44462;SDS011;30170;52.190;8.702;2023-01-29T07:06:17;56.38;;;25.48;;
44462;SDS011;30170;52.190;8.702;2023-01-29T07:08:45;55.88;;;25.73;;
44462;SDS011;30170;52.190;8.702;2023-01-29T07:11:12;63.00;;;27.52;;
44462;SDS011;30170;52.190;8.702;2023-01-29T07:13:40;63.97;;;28.90;;
44462;SDS011;30170;52.190;8.702;2023-01-29T07:16:08;63.05;;;34.28;;
44462;SDS011;30170;52.190;8.702;2023-01-29T07:18:35;65.47;;;40.40;;
44462;SDS011;30170;52.190;8.702;2023-01-29T07:21:03;96.85;;;86.78;;
44462;SDS011;30170;52.190;8.702;2023-01-29T07:23:32;140.77;;;130.18;;
44462;SDS011;30170;52.190;8.702;2023-01-29T07:26:01;126.80;;;116.38;;
44462;SDS011;30170;52.190;8.702;2023-01-29T07:28:28;126.90;;;115.45;;
44462;SDS011;30170;52.190;8.702;2023-01-29T07:30:56;128.23;;;117.82;;
44462;SDS011;30170;52.190;8.702;2023-01-29T07:33:25;117.35;;;107.70;;
44462;SDS011;30170;52.190;8.702;2023-01-29T07:35:52;122.93;;;112.45;;
44462;SDS011;30170;52.190;8.702;2023-01-29T07:38:20;154.98;;;143.55;;
44462;SDS011;30170;52.190;8.702;2023-01-29T07:40:55;145.68;;;134.40;;
44462;SDS011;30170;52.190;8.702;2023-01-29T07:43:22;160.48;;;148.82;;
44462;SDS011;30170;52.190;8.702;2023-01-29T07:45:52;102.72;;;93.10;;
44462;SDS011;30170;52.190;8.702;2023-01-29T07:48:19;107.35;;;98.43;;
44462;SDS011;30170;52.190;8.702;2023-01-29T07:50:53;144.95;;;134.45;;
44462;SDS011;30170;52.190;8.702;2023-01-29T07:53:20;98.97;;;90.20;;
44462;SDS011;30170;52.190;8.702;2023-01-29T07:55:47;122.70;;;112.22;;
44462;SDS011;30170;52.190;8.702;2023-01-29T07:58:20;137.20;;;126.38;;
44462;SDS011;30170;52.190;8.702;2023-01-29T08:00:47;122.00;;;111.95;;
44462;SDS011;30170;52.190;8.702;2023-01-29T08:03:16;77.50;;;69.13;;
44462;SDS011;30170;52.190;8.702;2023-01-29T08:05:43;102.75;;;93.45;;
44462;SDS011;30170;52.190;8.702;2023-01-29T08:08:11;77.65;;;69.38;;
44462;SDS011;30170;52.190;8.702;2023-01-29T08:10:40;80.13;;;72.28;;
44462;SDS011;30170;52.190;8.702;2023-01-29T08:13:08;104.60;;;95.65;;
44462;SDS011;30170;52.190;8.702;2023-01-29T08:15:35;99.15;;;89.72;;
44462;SDS011;30170;52.190;8.702;2023-01-29T08:18:22;109.93;;;100.70;;
44462;SDS011;30170;52.190;8.702;2023-01-29T08:20:51;119.15;;;109.13;;
44462;SDS011;30170;52.190;8.702;2023-01-29T08:23:20;63.90;;;50.08;;
44462;SDS011;30170;52.190;8.702;2023-01-29T08:25:48;60.65;;;49.67;;
44462;SDS011;30170;52.190;8.702;2023-01-29T08:28:16;63.00;;;45.58;;
44462;SDS011;30170;52.190;8.702;2023-01-29T08:30:43;57.72;;;45.58;;
44462;SDS011;30170;52.190;8.702;2023-01-29T08:33:14;58.42;;;25.10;;
44462;SDS011;30170;52.190;8.702;2023-01-29T08:35:49;60.03;;;35.65;;
44462;SDS011;30170;52.190;8.702;2023-01-29T08:38:20;56.70;;;39.60;;
44462;SDS011;30170;52.190;8.702;2023-01-29T08:40:47;61.85;;;42.78;;
44462;SDS011;30170;52.190;8.702;2023-01-29T08:43:15;64.65;;;54.40;;
44462;SDS011;30170;52.190;8.702;2023-01-29T08:45:51;57.90;;;34.72;;
44462;SDS011;30170;52.190;8.702;2023-01-29T08:48:19;61.70;;;47.80;;
44462;SDS011;30170;52.190;8.702;2023-01-29T08:50:46;65.70;;;52.75;;
44462;SDS011;30170;52.190;8.702;2023-01-29T08:53:15;70.07;;;55.28;;
44462;SDS011;30170;52.190;8.702;2023-01-29T08:55:44;64.93;;;50.78;;
44462;SDS011;30170;52.190;8.702;2023-01-29T08:58:12;73.63;;;60.33;;
44462;SDS011;30170;52.190;8.702;2023-01-29T09:00:39;69.78;;;51.58;;
44462;SDS011;30170;52.190;8.702;2023-01-29T09:03:06;60.65;;;46.97;;
44462;SDS011;30170;52.190;8.702;2023-01-29T09:05:37;66.78;;;60.25;;
44462;SDS011;30170;52.190;8.702;2023-01-29T09:08:05;57.97;;;40.42;;
44462;SDS011;30170;52.190;8.702;2023-01-29T09:10:53;62.28;;;49.58;;
44462;SDS011;30170;52.190;8.702;2023-01-29T09:13:23;84.20;;;76.00;;
44462;SDS011;30170;52.190;8.702;2023-01-29T09:15:59;56.72;;;50.42;;
44462;SDS011;30170;52.190;8.702;2023-01-29T09:18:27;64.75;;;53.75;;
44462;SDS011;30170;52.190;8.702;2023-01-29T09:20:54;58.53;;;42.92;;
44462;SDS011;30170;52.190;8.702;2023-01-29T09:23:22;68.57;;;57.00;;
44462;SDS011;30170;52.190;8.702;2023-01-29T09:25:49;68.40;;;60.45;;
44462;SDS011;30170;52.190;8.702;2023-01-29T09:28:17;65.38;;;58.90;;
44462;SDS011;30170;52.190;8.702;2023-01-29T09:30:49;74.45;;;57.55;;
44462;SDS011;30170;52.190;8.702;2023-01-29T09:33:17;68.53;;;61.42;;
44462;SDS011;30170;52.190;8.702;2023-01-29T09:35:45;50.83;;;33.25;;
44462;SDS011;30170;52.190;8.702;2023-01-29T09:38:12;54.60;;;44.22;;
44462;SDS011;30170;52.190;8.702;2023-01-29T09:43:17;56.33;;;44.47;;
44462;SDS011;30170;52.190;8.702;2023-01-29T09:46:04;59.53;;;43.08;;
44462;SDS011;30170;52.190;8.702;2023-01-29T09:48:33;55.05;;;46.70;;
44462;SDS011;30170;52.190;8.702;2023-01-29T09:51:04;62.88;;;42.05;;
44462;SDS011;30170;52.190;8.702;2023-01-29T09:53:39;60.00;;;39.20;;
44462;SDS011;30170;52.190;8.702;2023-01-29T09:56:19;51.28;;;42.42;;
44462;SDS011;30170;52.190;8.702;2023-01-29T09:58:47;63.90;;;40.67;;
44462;SDS011;30170;52.190;8.702;2023-01-29T10:01:20;56.53;;;41.78;;
44462;SDS011;30170;52.190;8.702;2023-01-29T10:14:41;56.55;;;34.83;;
44462;SDS011;30170;52.190;8.702;2023-01-29T10:25:03;63.13;;;39.53;;
44462;SDS011;30170;52.190;8.702;2023-01-29T10:27:31;51.88;;;30.13;;
44462;SDS011;30170;52.190;8.702;2023-01-29T10:30:00;62.55;;;52.60;;
44462;SDS011;30170;52.190;8.702;2023-01-29T10:32:29;63.17;;;45.47;;
44462;SDS011;30170;52.190;8.702;2023-01-29T10:37:57;63.50;;;42.92;;
44462;SDS011;30170;52.190;8.702;2023-01-29T10:40:31;67.57;;;54.50;;
44462;SDS011;30170;52.190;8.702;2023-01-29T10:43:02;71.97;;;59.88;;
44462;SDS011;30170;52.190;8.702;2023-01-29T10:59:02;52.55;;;22.38;;
44462;SDS011;30170;52.190;8.702;2023-01-29T11:01:30;66.88;;;56.55;;
44462;SDS011;30170;52.190;8.702;2023-01-29T11:04:02;68.80;;;61.55;;
44462;SDS011;30170;52.190;8.702;2023-01-29T11:06:30;68.25;;;58.97;;
44462;SDS011;30170;52.190;8.702;2023-01-29T11:11:42;59.10;;;43.45;;
44462;SDS011;30170;52.190;8.702;2023-01-29T11:14:12;64.47;;;44.63;;
44462;SDS011;30170;52.190;8.702;2023-01-29T11:16:42;52.35;;;36.47;;
44462;SDS011;30170;52.190;8.702;2023-01-29T11:19:11;55.70;;;35.67;;
44462;SDS011;30170;52.190;8.702;2023-01-29T11:21:52;57.20;;;34.38;;
44462;SDS011;30170;52.190;8.702;2023-01-29T11:24:24;60.40;;;37.70;;
44462;SDS011;30170;52.190;8.702;2023-01-29T11:26:51;53.58;;;31.52;;
44462;SDS011;30170;52.190;8.702;2023-01-29T11:31:54;49.45;;;35.25;;
44462;SDS011;30170;52.190;8.702;2023-01-29T11:34:22;51.25;;;31.40;;
44462;SDS011;30170;52.190;8.702;2023-01-29T11:36:58;56.45;;;33.80;;
44462;SDS011;30170;52.190;8.702;2023-01-29T11:39:26;51.53;;;27.40;;
44462;SDS011;30170;52.190;8.702;2023-01-29T11:41:58;48.83;;;21.70;;
44462;SDS011;30170;52.190;8.702;2023-01-29T11:49:35;50.10;;;24.90;;
44462;SDS011;30170;52.190;8.702;2023-01-29T11:52:03;54.28;;;27.40;;
44462;SDS011;30170;52.190;8.702;2023-01-29T11:54:35;49.88;;;30.30;;
44462;SDS011;30170;52.190;8.702;2023-01-29T11:57:12;55.05;;;36.50;;
44462;SDS011;30170;52.190;8.702;2023-01-29T11:59:45;48.45;;;31.00;;
44462;SDS011;30170;52.190;8.702;2023-01-29T12:02:22;53.40;;;31.00;;
44462;SDS011;30170;52.190;8.702;2023-01-29T12:04:52;50.22;;;25.77;;
44462;SDS011;30170;52.190;8.702;2023-01-29T12:07:20;46.47;;;23.27;;
44462;SDS011;30170;52.190;8.702;2023-01-29T12:09:48;39.92;;;24.83;;
44462;SDS011;30170;52.190;8.702;2023-01-29T12:12:17;44.85;;;26.20;;
44462;SDS011;30170;52.190;8.702;2023-01-29T12:20:26;49.67;;;32.35;;
44462;SDS011;30170;52.190;8.702;2023-01-29T12:25:33;56.13;;;33.25;;
44462;SDS011;30170;52.190;8.702;2023-01-29T12:30:51;43.13;;;31.38;;
44462;SDS011;30170;52.190;8.702;2023-01-29T12:33:32;46.00;;;27.63;;
44462;SDS011;30170;52.190;8.702;2023-01-29T12:36:08;41.28;;;21.73;;
44462;SDS011;30170;52.190;8.702;2023-01-29T12:38:37;38.10;;;23.15;;
44462;SDS011;30170;52.190;8.702;2023-01-29T12:41:49;46.08;;;29.20;;
44462;SDS011;30170;52.190;8.702;2023-01-29T12:44:00;43.03;;;25.98;;
44462;SDS011;30170;52.190;8.702;2023-01-29T12:46:29;36.85;;;21.88;;
44462;SDS011;30170;52.190;8.702;2023-01-29T12:48:57;44.67;;;23.95;;
44462;SDS011;30170;52.190;8.702;2023-01-29T12:51:30;45.33;;;29.98;;
44462;SDS011;30170;52.190;8.702;2023-01-29T12:54:04;39.30;;;28.27;;
44462;SDS011;30170;52.190;8.702;2023-01-29T12:56:38;39.83;;;21.50;;
44462;SDS011;30170;52.190;8.702;2023-01-29T13:01:45;39.00;;;24.83;;
44462;SDS011;30170;52.190;8.702;2023-01-29T13:07:40;37.90;;;28.33;;
44462;SDS011;30170;52.190;8.702;2023-01-29T13:10:09;37.47;;;25.02;;
44462;SDS011;30170;52.190;8.702;2023-01-29T13:12:45;41.50;;;23.15;;
44462;SDS011;30170;52.190;8.702;2023-01-29T13:15:39;40.03;;;25.08;;
44462;SDS011;30170;52.190;8.702;2023-01-29T13:21:26;39.53;;;30.83;;
44462;SDS011;30170;52.190;8.702;2023-01-29T13:24:32;44.58;;;27.38;;
44462;SDS011;30170;52.190;8.702;2023-01-29T13:26:52;41.63;;;30.50;;
44462;SDS011;30170;52.190;8.702;2023-01-29T13:31:48;41.33;;;30.17;;
44462;SDS011;30170;52.190;8.702;2023-01-29T13:34:25;42.20;;;26.88;;
44462;SDS011;30170;52.190;8.702;2023-01-29T13:37:02;40.47;;;29.50;;
44462;SDS011;30170;52.190;8.702;2023-01-29T13:39:37;42.85;;;27.30;;
44462;SDS011;30170;52.190;8.702;2023-01-29T13:42:18;48.10;;;31.85;;
44462;SDS011;30170;52.190;8.702;2023-01-29T13:44:56;41.00;;;25.10;;
44462;SDS011;30170;52.190;8.702;2023-01-29T13:52:56;35.25;;;25.60;;
44462;SDS011;30170;52.190;8.702;2023-01-29T13:55:31;45.83;;;26.65;;
44462;SDS011;30170;52.190;8.702;2023-01-29T13:58:01;46.25;;;29.27;;
44462;SDS011;30170;52.190;8.702;2023-01-29T14:07:59;41.47;;;31.73;;
44462;SDS011;30170;52.190;8.702;2023-01-29T14:10:28;44.30;;;34.85;;
44462;SDS011;30170;52.190;8.702;2023-01-29T14:15:30;43.72;;;32.28;;
44462;SDS011;30170;52.190;8.702;2023-01-29T14:20:38;39.53;;;32.28;;
44462;SDS011;30170;52.190;8.702;2023-01-29T14:23:20;39.72;;;24.92;;
44462;SDS011;30170;52.190;8.702;2023-01-29T14:25:48;41.38;;;32.17;;
44462;SDS011;30170;52.190;8.702;2023-01-29T14:28:18;38.75;;;25.75;;
44462;SDS011;30170;52.190;8.702;2023-01-29T14:30:51;48.67;;;35.15;;
44462;SDS011;30170;52.190;8.702;2023-01-29T14:36:03;43.75;;;31.25;;
44462;SDS011;30170;52.190;8.702;2023-01-29T14:38:47;38.10;;;23.35;;
44462;SDS011;30170;52.190;8.702;2023-01-29T14:47:15;43.13;;;30.02;;
44462;SDS011;30170;52.190;8.702;2023-01-29T14:49:51;49.40;;;33.13;;
44462;SDS011;30170;52.190;8.702;2023-01-29T14:52:20;47.78;;;33.33;;
44462;SDS011;30170;52.190;8.702;2023-01-29T14:58:56;47.72;;;42.17;;
44462;SDS011;30170;52.190;8.702;2023-01-29T15:01:29;39.58;;;28.50;;
44462;SDS011;30170;52.190;8.702;2023-01-29T15:04:02;47.50;;;42.83;;
44462;SDS011;30170;52.190;8.702;2023-01-29T15:06:45;51.95;;;46.10;;
44462;SDS011;30170;52.190;8.702;2023-01-29T15:12:04;46.75;;;35.60;;
44462;SDS011;30170;52.190;8.702;2023-01-29T15:14:37;49.15;;;42.65;;
44462;SDS011;30170;52.190;8.702;2023-01-29T15:19:50;50.25;;;36.03;;
44462;SDS011;30170;52.190;8.702;2023-01-29T15:22:21;47.88;;;33.13;;
44462;SDS011;30170;52.190;8.702;2023-01-29T15:25:02;46.42;;;33.78;;
44462;SDS011;30170;52.190;8.702;2023-01-29T15:27:30;51.90;;;38.30;;
44462;SDS011;30170;52.190;8.702;2023-01-29T15:29:58;50.50;;;38.63;;
44462;SDS011;30170;52.190;8.702;2023-01-29T15:32:26;59.63;;;51.88;;
44462;SDS011;30170;52.190;8.702;2023-01-29T15:34:57;57.42;;;49.13;;
44462;SDS011;30170;52.190;8.702;2023-01-29T15:37:26;40.17;;;27.05;;
44462;SDS011;30170;52.190;8.702;2023-01-29T15:40:13;44.80;;;33.92;;
44462;SDS011;30170;52.190;8.702;2023-01-29T15:42:45;58.75;;;50.92;;
44462;SDS011;30170;52.190;8.702;2023-01-29T15:45:30;50.35;;;43.28;;
44462;SDS011;30170;52.190;8.702;2023-01-29T15:48:02;47.95;;;42.25;;
44462;SDS011;30170;52.190;8.702;2023-01-29T15:50:30;49.72;;;42.83;;
44462;SDS011;30170;52.190;8.702;2023-01-29T15:52:59;50.92;;;40.20;;
44462;SDS011;30170;52.190;8.702;2023-01-29T15:55:33;53.38;;;47.90;;
44462;SDS011;30170;52.190;8.702;2023-01-29T15:58:10;48.67;;;34.25;;
44462;SDS011;30170;52.190;8.702;2023-01-29T16:00:39;52.97;;;46.78;;
44462;SDS011;30170;52.190;8.702;2023-01-29T16:03:13;65.30;;;58.75;;
44462;SDS011;30170;52.190;8.702;2023-01-29T16:05:40;64.90;;;58.47;;
44462;SDS011;30170;52.190;8.702;2023-01-29T16:08:15;81.45;;;73.38;;
44462;SDS011;30170;52.190;8.702;2023-01-29T16:10:43;68.32;;;61.35;;
44462;SDS011;30170;52.190;8.702;2023-01-29T16:13:19;73.25;;;65.53;;
44462;SDS011;30170;52.190;8.702;2023-01-29T16:15:57;77.28;;;69.85;;
44462;SDS011;30170;52.190;8.702;2023-01-29T16:21:09;81.38;;;71.90;;
44462;SDS011;30170;52.190;8.702;2023-01-29T16:23:44;72.13;;;65.30;;
44462;SDS011;30170;52.190;8.702;2023-01-29T16:26:15;77.32;;;69.88;;
44462;SDS011;30170;52.190;8.702;2023-01-29T16:28:44;74.22;;;66.70;;
44462;SDS011;30170;52.190;8.702;2023-01-29T16:31:11;61.72;;;54.33;;
44462;SDS011;30170;52.190;8.702;2023-01-29T16:33:46;64.00;;;56.50;;
44462;SDS011;30170;52.190;8.702;2023-01-29T16:36:19;81.57;;;74.18;;
44462;SDS011;30170;52.190;8.702;2023-01-29T16:38:52;80.38;;;72.75;;
44462;SDS011;30170;52.190;8.702;2023-01-29T16:43:51;64.53;;;57.92;;
44462;SDS011;30170;52.190;8.702;2023-01-29T16:48:47;90.32;;;82.68;;
44462;SDS011;30170;52.190;8.702;2023-01-29T16:53:52;65.22;;;57.67;;
44462;SDS011;30170;52.190;8.702;2023-01-29T16:56:27;87.32;;;80.18;;
44462;SDS011;30170;52.190;8.702;2023-01-29T16:58:55;68.80;;;61.90;;
44462;SDS011;30170;52.190;8.702;2023-01-29T17:01:24;85.65;;;78.10;;
44462;SDS011;30170;52.190;8.702;2023-01-29T17:03:58;62.83;;;56.63;;
44462;SDS011;30170;52.190;8.702;2023-01-29T17:06:29;87.15;;;78.25;;
44462;SDS011;30170;52.190;8.702;2023-01-29T17:09:03;77.25;;;70.25;;
44462;SDS011;30170;52.190;8.702;2023-01-29T17:11:39;80.82;;;72.68;;
44462;SDS011;30170;52.190;8.702;2023-01-29T17:14:10;82.38;;;75.25;;
44462;SDS011;30170;52.190;8.702;2023-01-29T17:16:53;58.72;;;52.75;;
44462;SDS011;30170;52.190;8.702;2023-01-29T17:19:23;86.50;;;79.07;;
44462;SDS011;30170;52.190;8.702;2023-01-29T17:21:51;85.05;;;77.25;;
44462;SDS011;30170;52.190;8.702;2023-01-29T17:24:18;78.30;;;71.60;;
44462;SDS011;30170;52.190;8.702;2023-01-29T17:26:45;68.35;;;61.25;;
44462;SDS011;30170;52.190;8.702;2023-01-29T17:29:13;83.28;;;75.38;;